createdAt,value
2018-05-16T00:00:28.409Z,0
2018-05-16T00:01:29.000Z,0
2018-05-16T00:02:29.558Z,0
2018-05-16T00:03:30.096Z,0
2018-05-16T00:04:30.645Z,0
2018-05-16T00:05:31.195Z,0
2018-05-16T00:06:31.745Z,0
2018-05-16T00:07:32.299Z,0
2018-05-16T00:08:32.847Z,0
2018-05-16T00:09:33.401Z,0
2018-05-16T00:10:33.948Z,0
2018-05-16T00:11:34.498Z,0
2018-05-16T00:12:35.050Z,0
2018-05-16T00:13:35.600Z,0
2018-05-16T00:14:36.140Z,0
2018-05-16T00:15:36.689Z,0
2018-05-16T00:16:37.240Z,0
2018-05-16T00:17:37.784Z,0
2018-05-16T00:18:38.334Z,0
2018-05-16T00:19:38.883Z,0
2018-05-16T00:20:39.425Z,0
2018-05-16T00:21:39.977Z,0
2018-05-16T00:22:40.529Z,0
2018-05-16T00:23:41.084Z,0
2018-05-16T00:24:41.626Z,0
2018-05-16T00:25:42.166Z,0
2018-05-16T00:26:42.723Z,0
2018-05-16T00:27:43.269Z,0
2018-05-16T00:28:43.821Z,0
2018-05-16T00:29:44.373Z,0
2018-05-16T00:30:44.925Z,0
2018-05-16T00:31:45.473Z,0
2018-05-16T00:32:46.021Z,0
2018-05-16T00:33:46.568Z,0
2018-05-16T00:34:47.120Z,0
2018-05-16T00:35:47.666Z,0
2018-05-16T00:36:48.224Z,0
2018-05-16T00:37:48.778Z,0
2018-05-16T00:38:49.328Z,0
2018-05-16T00:39:49.877Z,0
2018-05-16T00:40:50.427Z,0
2018-05-16T00:41:50.971Z,0
2018-05-16T00:42:51.514Z,0
2018-05-16T00:43:52.063Z,0
2018-05-16T00:44:52.607Z,0
2018-05-16T00:45:53.155Z,0
2018-05-16T00:46:53.702Z,0
2018-05-16T00:47:54.252Z,0
2018-05-16T00:48:54.800Z,0
2018-05-16T00:49:55.351Z,0
2018-05-16T00:50:55.897Z,0
2018-05-16T00:51:56.449Z,0
2018-05-16T00:52:56.999Z,0
2018-05-16T00:53:57.553Z,0
2018-05-16T00:54:58.107Z,0
2018-05-16T00:55:58.651Z,0
2018-05-16T00:56:59.201Z,0
2018-05-16T00:57:59.755Z,0
2018-05-16T00:59:00.305Z,0
2018-05-16T01:00:00.855Z,0
2018-05-16T01:01:01.410Z,0
2018-05-16T01:02:01.963Z,0
2018-05-16T01:03:02.518Z,0
2018-05-16T01:04:03.069Z,0
2018-05-16T01:05:03.621Z,0
2018-05-16T01:06:04.167Z,0
2018-05-16T01:07:04.715Z,0
2018-05-16T01:08:05.269Z,0
2018-05-16T01:09:05.817Z,0
2018-05-16T01:10:06.370Z,0
2018-05-16T01:11:06.923Z,0
2018-05-16T01:12:07.468Z,0
2018-05-16T01:13:08.021Z,0
2018-05-16T01:14:08.569Z,0
2018-05-16T01:15:09.124Z,0
2018-05-16T01:16:09.682Z,0
2018-05-16T01:17:10.220Z,0
2018-05-16T01:18:10.770Z,0
2018-05-16T01:19:11.316Z,0
2018-05-16T01:20:11.860Z,0
2018-05-16T01:21:12.409Z,0
2018-05-16T01:22:12.960Z,0
2018-05-16T01:23:13.513Z,0
2018-05-16T01:24:14.058Z,0
2018-05-16T01:25:14.603Z,0
2018-05-16T01:26:15.157Z,0
2018-05-16T01:27:15.709Z,0
2018-05-16T01:28:16.263Z,0
2018-05-16T01:29:16.810Z,0
2018-05-16T01:30:17.355Z,0
2018-05-16T01:31:17.911Z,0
2018-05-16T01:32:18.464Z,0
2018-05-16T01:33:19.016Z,0
2018-05-16T01:34:19.564Z,0
2018-05-16T01:35:20.109Z,0
2018-05-16T01:36:20.663Z,0
2018-05-16T01:37:21.216Z,0
2018-05-16T01:38:21.766Z,0
2018-05-16T01:39:22.346Z,0
2018-05-16T01:40:22.862Z,0
2018-05-16T01:41:23.416Z,0
2018-05-16T01:42:23.965Z,0
2018-05-16T01:43:24.511Z,0
2018-05-16T01:44:25.063Z,0
2018-05-16T01:45:25.612Z,0
2018-05-16T01:46:26.167Z,0
2018-05-16T01:47:26.720Z,0
2018-05-16T01:48:27.270Z,0
2018-05-16T01:49:27.822Z,0
2018-05-16T01:50:28.371Z,0
2018-05-16T01:51:28.927Z,0
2018-05-16T01:52:29.476Z,0
2018-05-16T01:53:30.027Z,0
2018-05-16T01:54:30.576Z,0
2018-05-16T01:55:31.127Z,0
2018-05-16T01:56:31.680Z,0
2018-05-16T01:57:32.231Z,0
2018-05-16T01:58:32.775Z,0
2018-05-16T01:59:33.325Z,0
2018-05-16T02:00:33.874Z,0
2018-05-16T02:01:34.424Z,0
2018-05-16T02:02:34.972Z,0
2018-05-16T02:03:35.525Z,0
2018-05-16T02:04:36.073Z,0
2018-05-16T02:05:36.613Z,0
2018-05-16T02:06:37.164Z,0
2018-05-16T02:07:37.709Z,0
2018-05-16T02:08:38.262Z,0
2018-05-16T02:09:38.808Z,0
2018-05-16T02:10:39.357Z,0
2018-05-16T02:11:39.911Z,0
2018-05-16T02:12:40.467Z,0
2018-05-16T02:13:41.016Z,0
2018-05-16T02:14:41.561Z,0
2018-05-16T02:15:42.119Z,0
2018-05-16T02:16:42.666Z,0
2018-05-16T02:17:43.223Z,0
2018-05-16T02:18:43.777Z,0
2018-05-16T02:19:44.327Z,0
2018-05-16T02:20:44.878Z,0
2018-05-16T02:21:45.432Z,0
2018-05-16T02:22:45.986Z,0
2018-05-16T02:23:46.542Z,0
2018-05-16T02:24:47.088Z,0
2018-05-16T02:25:47.636Z,0
2018-05-16T02:26:48.185Z,0
2018-05-16T02:27:48.734Z,0
2018-05-16T02:28:49.284Z,0
2018-05-16T02:29:49.836Z,0
2018-05-16T02:30:50.381Z,0
2018-05-16T02:31:50.928Z,0
2018-05-16T02:32:51.485Z,0
2018-05-16T02:33:52.035Z,0
2018-05-16T02:34:52.580Z,0
2018-05-16T02:35:53.129Z,0
2018-05-16T02:36:53.683Z,0
2018-05-16T02:37:54.233Z,0
2018-05-16T02:38:54.793Z,0
2018-05-16T02:39:55.335Z,0
2018-05-16T02:40:55.887Z,0
2018-05-16T02:41:56.433Z,0
2018-05-16T02:42:56.981Z,0
2018-05-16T02:43:57.520Z,0
2018-05-16T02:44:58.068Z,0
2018-05-16T02:45:58.618Z,0
2018-05-16T02:46:59.157Z,0
2018-05-16T02:47:59.787Z,0
2018-05-16T02:49:00.256Z,0
2018-05-16T02:50:00.808Z,0
2018-05-16T02:51:01.581Z,0
2018-05-16T02:52:02.126Z,0
2018-05-16T02:53:02.678Z,0
2018-05-16T02:54:03.227Z,0
2018-05-16T02:55:03.783Z,0
2018-05-16T02:56:04.336Z,0
2018-05-16T02:57:04.886Z,0
2018-05-16T02:58:05.449Z,0
2018-05-16T02:59:05.996Z,0
2018-05-16T03:00:06.548Z,0
2018-05-16T03:01:07.091Z,0
2018-05-16T03:02:07.647Z,0
2018-05-16T03:03:08.198Z,0
2018-05-16T03:04:08.743Z,0
2018-05-16T03:05:09.288Z,0
2018-05-16T03:06:09.842Z,0
2018-05-16T03:07:10.397Z,0
2018-05-16T03:08:10.951Z,0
2018-05-16T03:09:11.501Z,0
2018-05-16T03:10:12.054Z,0
2018-05-16T03:11:12.611Z,0
2018-05-16T03:12:13.155Z,4
2018-05-16T03:13:13.711Z,4
2018-05-16T03:14:14.252Z,4
2018-05-16T03:15:14.796Z,4
2018-05-16T03:16:15.346Z,4
2018-05-16T03:17:15.898Z,8
2018-05-16T03:18:16.442Z,4
2018-05-16T03:19:16.986Z,8
2018-05-16T03:20:17.540Z,8
2018-05-16T03:21:18.087Z,8
2018-05-16T03:22:18.637Z,12
2018-05-16T03:23:19.190Z,16
2018-05-16T03:24:19.741Z,16
2018-05-16T03:25:20.287Z,24
2018-05-16T03:26:20.838Z,28
2018-05-16T03:27:21.388Z,28
2018-05-16T03:28:21.934Z,32
2018-05-16T03:29:22.484Z,36
2018-05-16T03:30:23.045Z,40
2018-05-16T03:31:23.591Z,40
2018-05-16T03:32:24.136Z,40
2018-05-16T03:33:24.694Z,44
2018-05-16T03:34:25.244Z,48
2018-05-16T03:35:25.797Z,48
2018-05-16T03:36:26.351Z,48
2018-05-16T03:37:26.904Z,48
2018-05-16T03:38:27.463Z,48
2018-05-16T03:39:28.013Z,48
2018-05-16T03:40:28.565Z,56
2018-05-16T03:41:29.105Z,72
2018-05-16T03:42:29.661Z,92
2018-05-16T03:43:30.213Z,108
2018-05-16T03:44:30.761Z,120
2018-05-16T03:45:31.316Z,132
2018-05-16T03:46:31.866Z,148
2018-05-16T03:47:32.415Z,156
2018-05-16T03:48:32.972Z,172
2018-05-16T03:49:33.516Z,188
2018-05-16T03:50:34.074Z,216
2018-05-16T03:51:34.614Z,248
2018-05-16T03:52:35.161Z,284
2018-05-16T03:53:35.712Z,328
2018-05-16T03:54:36.267Z,364
2018-05-16T03:55:36.821Z,396
2018-05-16T03:56:37.379Z,432
2018-05-16T03:57:37.939Z,472
2018-05-16T03:58:38.487Z,500
2018-05-16T03:59:39.047Z,540
2018-05-16T04:00:39.610Z,588
2018-05-16T04:01:40.160Z,644
2018-05-16T04:02:40.705Z,696
2018-05-16T04:03:41.261Z,776
2018-05-16T04:04:41.807Z,864
2018-05-16T04:05:42.358Z,952
2018-05-16T04:06:42.912Z,1036
2018-05-16T04:07:43.474Z,1120
2018-05-16T04:08:44.027Z,1220
2018-05-16T04:09:44.585Z,1308
2018-05-16T04:10:45.139Z,1436
2018-05-16T04:11:45.700Z,1580
2018-05-16T04:12:46.251Z,1748
2018-05-16T04:13:46.807Z,1928
2018-05-16T04:14:47.358Z,2124
2018-05-16T04:15:47.924Z,2308
2018-05-16T04:16:48.477Z,2436
2018-05-16T04:17:49.032Z,2536
2018-05-16T04:18:49.587Z,2568
2018-05-16T04:19:50.140Z,2592
2018-05-16T04:20:50.689Z,2632
2018-05-16T04:21:51.250Z,2668
2018-05-16T04:22:51.805Z,2660
2018-05-16T04:23:52.363Z,2620
2018-05-16T04:24:52.915Z,2552
2018-05-16T04:25:53.473Z,2524
2018-05-16T04:26:54.029Z,2524
2018-05-16T04:27:54.579Z,2552
2018-05-16T04:28:55.254Z,2632
2018-05-16T04:29:55.689Z,2716
2018-05-16T04:30:56.244Z,2832
2018-05-16T04:31:56.815Z,2964
2018-05-16T04:32:57.356Z,3104
2018-05-16T04:33:57.911Z,3192
2018-05-16T04:34:58.473Z,3212
2018-05-16T04:35:59.032Z,3212
2018-05-16T04:36:59.589Z,3156
2018-05-16T04:38:00.154Z,3064
2018-05-16T04:39:00.715Z,3076
2018-05-16T04:40:01.278Z,3156
2018-05-16T04:41:01.827Z,3288
2018-05-16T04:42:02.387Z,3452
2018-05-16T04:43:02.946Z,3596
2018-05-16T04:44:03.508Z,3732
2018-05-16T04:45:04.061Z,3888
2018-05-16T04:46:04.610Z,4112
2018-05-16T04:47:05.170Z,4360
2018-05-16T04:48:05.726Z,4636
2018-05-16T04:49:06.288Z,4904
2018-05-16T04:50:06.848Z,5012
2018-05-16T04:51:07.404Z,5136
2018-05-16T04:52:07.954Z,5504
2018-05-16T04:53:08.510Z,5820
2018-05-16T04:54:09.074Z,6032
2018-05-16T04:55:09.634Z,6136
2018-05-16T04:56:10.201Z,6084
2018-05-16T04:57:10.756Z,6036
2018-05-16T04:58:11.534Z,6032
2018-05-16T04:59:12.089Z,6072
2018-05-16T05:00:12.646Z,6052
2018-05-16T05:01:13.208Z,6124
2018-05-16T05:02:13.771Z,6144
2018-05-16T05:03:14.316Z,6312
2018-05-16T05:04:14.874Z,6756
2018-05-16T05:05:15.423Z,7476
2018-05-16T05:06:15.974Z,8372
2018-05-16T05:07:16.532Z,8988
2018-05-16T05:08:17.094Z,8928
2018-05-16T05:09:17.645Z,8872
2018-05-16T05:10:18.202Z,9156
2018-05-16T05:11:18.760Z,9640
2018-05-16T05:12:19.320Z,10048
2018-05-16T05:13:19.878Z,9216
2018-05-16T05:14:20.440Z,9348
2018-05-16T05:15:20.997Z,9268
2018-05-16T05:16:21.548Z,9368
2018-05-16T05:17:22.111Z,9424
2018-05-16T05:18:22.850Z,10332
2018-05-16T05:19:23.229Z,11876
2018-05-16T05:20:23.789Z,12884
2018-05-16T05:21:24.356Z,13924
2018-05-16T05:22:24.913Z,14904
2018-05-16T05:23:25.474Z,14652
2018-05-16T05:24:26.036Z,13500
2018-05-16T05:25:26.601Z,13116
2018-05-16T05:26:27.168Z,14316
2018-05-16T05:27:27.721Z,15540
2018-05-16T05:28:28.279Z,15236
2018-05-16T05:29:28.835Z,14680
2018-05-16T05:30:29.405Z,13828
2018-05-16T05:31:29.971Z,12780
2018-05-16T05:32:30.532Z,11912
2018-05-16T05:33:31.097Z,10896
2018-05-16T05:34:31.657Z,10668
2018-05-16T05:35:32.226Z,10908
2018-05-16T05:36:32.788Z,11452
2018-05-16T05:37:33.356Z,12192
2018-05-16T05:38:33.928Z,12640
2018-05-16T05:39:34.490Z,12292
2018-05-16T05:40:35.051Z,12648
2018-05-16T05:41:35.615Z,14516
2018-05-16T05:42:36.183Z,14296
2018-05-16T05:43:36.745Z,14384
2018-05-16T05:44:37.303Z,14744
2018-05-16T05:45:37.868Z,15236
2018-05-16T05:46:38.438Z,15820
2018-05-16T05:47:39.006Z,16040
2018-05-16T05:48:39.565Z,16180
2018-05-16T05:49:40.134Z,16244
2018-05-16T05:50:40.711Z,16480
2018-05-16T05:51:41.285Z,16680
2018-05-16T05:52:41.853Z,17632
2018-05-16T05:53:42.420Z,17984
2018-05-16T05:54:42.986Z,18592
2018-05-16T05:55:43.561Z,19072
2018-05-16T05:56:44.125Z,19744
2018-05-16T05:57:44.695Z,19936
2018-05-16T05:58:45.264Z,19712
2018-05-16T05:59:45.828Z,19328
2018-05-16T06:00:46.396Z,17440
2018-05-16T06:01:46.966Z,14372
2018-05-16T06:02:47.540Z,15644
2018-05-16T06:03:48.105Z,20192
2018-05-16T06:04:48.676Z,21888
2018-05-16T06:05:49.243Z,21920
2018-05-16T06:06:49.806Z,21632
2018-05-16T06:07:50.379Z,21824
2018-05-16T06:08:50.948Z,22048
2018-05-16T06:09:51.517Z,22656
2018-05-16T06:10:52.091Z,23232
2018-05-16T06:11:52.664Z,24160
2018-05-16T06:12:53.237Z,24480
2018-05-16T06:13:53.803Z,24384
2018-05-16T06:14:54.367Z,24096
2018-05-16T06:15:54.941Z,24192
2018-05-16T06:16:55.512Z,24480
2018-05-16T06:17:56.081Z,24992
2018-05-16T06:18:56.661Z,25376
2018-05-16T06:19:57.334Z,25504
2018-05-16T06:20:57.808Z,25632
2018-05-16T06:21:58.387Z,25856
2018-05-16T06:22:58.943Z,26336
2018-05-16T06:23:59.524Z,27168
2018-05-16T06:25:00.101Z,28064
2018-05-16T06:26:00.683Z,28704
2018-05-16T06:27:01.308Z,28896
2018-05-16T06:28:02.033Z,28672
2018-05-16T06:29:02.616Z,28864
2018-05-16T06:30:03.200Z,29408
2018-05-16T06:31:03.777Z,29920
2018-05-16T06:32:04.356Z,30176
2018-05-16T06:33:04.953Z,29792
2018-05-16T06:34:05.515Z,29408
2018-05-16T06:35:06.089Z,29984
2018-05-16T06:36:06.661Z,30784
2018-05-16T06:37:07.238Z,32352
2018-05-16T06:38:07.808Z,33920
2018-05-16T06:39:08.464Z,35008
2018-05-16T06:40:08.957Z,35488
2018-05-16T06:41:09.517Z,34912
2018-05-16T06:42:10.097Z,33920
2018-05-16T06:43:10.667Z,32704
2018-05-16T06:44:11.234Z,32096
2018-05-16T06:45:11.813Z,32768
2018-05-16T06:46:12.393Z,34336
2018-05-16T06:47:12.962Z,35904
2018-05-16T06:48:13.524Z,36992
2018-05-16T06:49:14.096Z,37504
2018-05-16T06:50:14.670Z,38016
2018-05-16T06:51:15.245Z,38368
2018-05-16T06:52:15.819Z,38016
2018-05-16T06:53:16.384Z,37184
2018-05-16T06:54:16.958Z,36640
2018-05-16T06:55:17.541Z,36384
2018-05-16T06:56:18.110Z,36352
2018-05-16T06:57:18.678Z,36992
2018-05-16T06:58:19.254Z,38144
2018-05-16T06:59:19.836Z,39456
2018-05-16T07:00:20.407Z,40960
2018-05-16T07:01:20.986Z,41984
2018-05-16T07:02:21.559Z,42528
2018-05-16T07:03:22.160Z,41984
2018-05-16T07:04:22.735Z,41216
2018-05-16T07:05:23.313Z,39968
2018-05-16T07:06:23.906Z,39104
2018-05-16T07:07:24.464Z,39488
2018-05-16T07:08:25.052Z,40768
2018-05-16T07:10:09.792Z,43328
2018-05-16T07:11:10.355Z,44256
2018-05-16T07:12:11.044Z,44448
2018-05-16T07:13:11.557Z,43936
2018-05-16T07:14:12.129Z,43616
2018-05-16T07:15:12.735Z,43456
2018-05-16T07:16:13.277Z,43744
2018-05-16T07:17:13.853Z,44160
2018-05-16T07:18:14.444Z,44576
2018-05-16T07:19:15.018Z,45024
2018-05-16T07:20:15.587Z,46688
2018-05-16T07:21:16.164Z,47008
2018-05-16T07:22:16.739Z,46720
2018-05-16T07:23:17.316Z,46016
2018-05-16T07:24:17.885Z,46880
2018-05-16T07:25:18.461Z,46688
2018-05-16T07:26:19.064Z,47936
2018-05-16T07:27:19.608Z,49120
2018-05-16T07:28:20.179Z,50880
2018-05-16T07:29:20.753Z,52992
2018-05-16T07:30:21.325Z,53952
2018-05-16T07:31:21.898Z,52960
2018-05-16T07:32:22.476Z,51360
2018-05-16T07:33:23.048Z,49536
2018-05-16T07:34:23.624Z,47808
2018-05-16T07:35:24.200Z,47904
2018-05-16T07:36:24.794Z,49280
2018-05-16T07:37:25.345Z,51456
2018-05-16T07:38:25.934Z,54752
2018-05-16T07:39:26.511Z,57024
2018-05-16T07:40:27.089Z,57504
2018-05-16T07:41:27.669Z,57376
2018-05-16T07:42:28.281Z,56672
2018-05-16T07:43:28.876Z,55712
2018-05-16T07:44:29.455Z,56032
2018-05-16T07:45:30.105Z,55584
2018-05-16T07:46:30.672Z,55904
2018-05-16T07:47:31.237Z,56704
2018-05-16T07:48:31.855Z,58240
2018-05-16T07:49:32.435Z,60416
2018-05-16T07:50:33.015Z,61440
2018-05-16T07:51:33.594Z,62720
2018-05-16T07:52:34.198Z,60192
2018-05-16T07:53:34.780Z,57952
2018-05-16T07:54:35.347Z,57216
2018-05-16T07:55:35.919Z,58240
2018-05-16T07:56:36.512Z,58848
2018-05-16T07:57:37.071Z,59520
2018-05-16T07:58:37.657Z,58400
2018-05-16T07:59:38.220Z,58656
2018-05-16T08:00:38.808Z,59872
2018-05-16T08:01:39.376Z,61984
2018-05-16T08:02:39.950Z,64128
2018-05-16T08:03:40.561Z,66560
2018-05-16T08:04:41.152Z,67968
2018-05-16T08:05:41.724Z,68416
2018-05-16T08:06:42.290Z,66880
2018-05-16T08:07:42.857Z,64000
2018-05-16T08:08:43.455Z,61408
2018-05-16T08:09:44.031Z,61856
2018-05-16T08:10:44.616Z,66464
2018-05-16T08:11:45.234Z,69984
2018-05-16T08:12:45.808Z,72160
2018-05-16T08:13:46.384Z,70912
2018-05-16T08:14:46.974Z,67968
2018-05-16T08:15:47.596Z,66688
2018-05-16T08:16:48.218Z,67488
2018-05-16T08:17:48.830Z,69408
2018-05-16T08:18:49.446Z,72768
2018-05-16T08:19:50.105Z,75936
2018-05-16T08:20:50.699Z,76800
2018-05-16T08:21:51.429Z,76256
2018-05-16T08:22:51.920Z,75104
2018-05-16T08:23:52.507Z,73312
2018-05-16T08:24:53.126Z,71712
2018-05-16T08:25:53.716Z,72288
2018-05-16T08:26:54.305Z,72992
2018-05-16T08:27:54.878Z,74080
2018-05-16T08:28:55.457Z,72768
2018-05-16T08:29:56.026Z,71840
2018-05-16T08:30:56.602Z,69952
2018-05-16T08:31:57.191Z,70112
2018-05-16T08:32:57.752Z,69536
2018-05-16T08:33:58.331Z,68576
2018-05-16T08:34:58.904Z,70784
2018-05-16T08:35:59.475Z,71744
2018-05-16T08:37:00.050Z,71520
2018-05-16T08:38:00.626Z,72640
2018-05-16T08:39:01.203Z,74208
2018-05-16T08:40:01.787Z,75648
2018-05-16T08:41:02.394Z,76736
2018-05-16T08:42:02.961Z,75072
2018-05-16T08:43:03.592Z,75040
2018-05-16T08:44:04.124Z,63200
2018-05-16T08:45:04.688Z,41408
2018-05-16T08:46:05.266Z,37120
2018-05-16T08:47:05.836Z,41216
2018-05-16T08:48:06.412Z,64000
2018-05-16T08:49:06.986Z,47776
2018-05-16T08:50:07.559Z,49216
2018-05-16T08:51:08.134Z,67328
2018-05-16T08:52:08.698Z,67968
2018-05-16T08:53:09.273Z,41120
2018-05-16T08:54:09.857Z,89600
2018-05-16T08:55:10.435Z,41120
2018-05-16T08:56:11.014Z,40544
2018-05-16T08:57:11.605Z,42816
2018-05-16T08:58:12.166Z,44992
2018-05-16T08:59:12.858Z,43712
2018-05-16T09:00:13.438Z,57056
2018-05-16T09:01:14.148Z,48896
2018-05-16T09:02:14.606Z,82048
2018-05-16T09:03:15.219Z,84576
2018-05-16T09:04:15.826Z,63328
2018-05-16T09:05:16.429Z,63008
2018-05-16T09:06:17.012Z,108224
2018-05-16T09:07:17.603Z,60896
2018-05-16T09:08:18.224Z,68960
2018-05-16T09:09:18.831Z,84736
2018-05-16T09:10:19.431Z,69952
2018-05-16T09:11:20.023Z,74272
2018-05-16T09:12:20.601Z,71680
2018-05-16T09:13:21.201Z,73536
2018-05-16T09:14:21.797Z,59648
2018-05-16T09:15:22.399Z,61184
2018-05-16T09:16:22.941Z,63584
2018-05-16T09:17:23.607Z,62912
2018-05-16T09:18:24.097Z,48320
2018-05-16T09:19:24.694Z,49696
2018-05-16T09:20:25.247Z,56320
2018-05-16T09:21:25.845Z,45792
2018-05-16T09:22:26.451Z,36896
2018-05-16T09:23:27.047Z,33216
2018-05-16T09:24:27.569Z,31072
2018-05-16T09:25:28.137Z,30240
2018-05-16T09:26:28.699Z,31616
2018-05-16T09:27:29.280Z,33120
2018-05-16T09:28:29.878Z,33952
2018-05-16T09:29:30.451Z,36928
2018-05-16T09:30:31.065Z,40000
2018-05-16T09:31:31.638Z,47296
2018-05-16T09:32:32.268Z,36480
2018-05-16T09:33:32.850Z,33792
2018-05-16T09:34:33.417Z,31648
2018-05-16T09:35:34.006Z,29792
2018-05-16T09:36:34.575Z,28032
2018-05-16T09:37:35.244Z,25568
2018-05-16T09:38:35.805Z,22528
2018-05-16T09:39:36.406Z,19712
2018-05-16T09:40:36.966Z,17660
2018-05-16T09:41:37.553Z,16492
2018-05-16T09:42:38.128Z,15700
2018-05-16T09:43:38.681Z,16116
2018-05-16T09:44:39.272Z,17108
2018-05-16T09:45:39.847Z,17796
2018-05-16T09:46:40.392Z,17764
2018-05-16T09:47:40.966Z,17296
2018-05-16T09:48:41.534Z,16788
2018-05-16T09:49:42.094Z,16096
2018-05-16T09:50:42.708Z,15264
2018-05-16T09:51:43.288Z,15088
2018-05-16T09:52:43.956Z,15152
2018-05-16T09:53:44.528Z,15592
2018-05-16T09:54:45.106Z,16476
2018-05-16T09:55:45.692Z,17648
2018-05-16T09:56:46.265Z,19744
2018-05-16T09:57:46.853Z,22112
2018-05-16T09:58:47.450Z,24576
2018-05-16T09:59:48.029Z,27040
2018-05-16T10:00:48.666Z,30592
2018-05-16T10:01:49.221Z,36160
2018-05-16T10:02:49.852Z,41440
2018-05-16T10:03:50.422Z,41536
2018-05-16T10:04:50.980Z,42304
2018-05-16T10:05:51.563Z,42368
2018-05-16T10:06:52.174Z,45376
2018-05-16T10:07:52.779Z,44160
2018-05-16T10:08:53.644Z,44032
2018-05-16T10:09:54.265Z,41760
2018-05-16T10:10:54.871Z,51392
2018-05-16T10:11:55.450Z,37056
2018-05-16T10:12:56.048Z,35520
2018-05-16T10:13:56.630Z,33920
2018-05-16T10:14:57.187Z,33536
2018-05-16T10:15:58.073Z,35520
2018-05-16T10:16:58.622Z,35264
2018-05-16T10:17:59.133Z,33248
2018-05-16T10:18:59.745Z,34176
2018-05-16T10:20:00.337Z,37504
2018-05-16T10:21:00.933Z,38656
2018-05-16T10:22:01.864Z,35520
2018-05-16T10:23:02.431Z,33600
2018-05-16T10:24:02.986Z,87424
2018-05-16T10:25:03.575Z,81440
2018-05-16T10:26:04.169Z,98400
2018-05-16T10:27:04.808Z,97344
2018-05-16T10:28:05.431Z,100032
2018-05-16T10:29:06.038Z,100832
2018-05-16T10:30:06.636Z,90272
2018-05-16T10:31:07.260Z,104672
2018-05-16T10:32:07.828Z,92032
2018-05-16T10:33:08.406Z,105696
2018-05-16T10:34:08.990Z,76448
2018-05-16T10:35:09.668Z,83936
2018-05-16T10:36:10.254Z,92608
2018-05-16T10:37:10.861Z,100864
2018-05-16T10:38:11.491Z,106784
2018-05-16T10:39:12.197Z,103200
2018-05-16T10:40:12.787Z,107328
2018-05-16T10:41:13.425Z,102528
2018-05-16T10:42:14.177Z,93728
2018-05-16T10:43:14.840Z,95264
2018-05-16T10:44:15.304Z,72320
2018-05-16T10:45:15.893Z,118368
2018-05-16T10:46:16.489Z,118752
2018-05-16T10:47:17.075Z,102368
2018-05-16T10:48:17.685Z,88448
2018-05-16T10:49:18.292Z,58560
2018-05-16T10:50:18.903Z,56800
2018-05-16T10:51:19.507Z,59168
2018-05-16T10:52:20.179Z,55552
2018-05-16T10:53:20.724Z,56640
2018-05-16T10:54:21.330Z,52864
2018-05-16T10:55:21.972Z,61344
2018-05-16T10:56:22.650Z,87648
2018-05-16T10:57:23.348Z,43136
2018-05-16T10:58:23.922Z,44992
2018-05-16T10:59:24.580Z,41472
2018-05-16T11:00:25.165Z,42272
2018-05-16T11:01:25.759Z,55328
2018-05-16T11:02:26.363Z,31584
2018-05-16T11:03:27.060Z,28992
2018-05-16T11:04:27.619Z,28512
2018-05-16T11:05:28.200Z,27840
2018-05-16T11:06:28.817Z,26784
2018-05-16T11:07:29.450Z,26368
2018-05-16T11:08:30.046Z,26272
2018-05-16T11:09:30.641Z,26304
2018-05-16T11:10:31.225Z,25984
2018-05-16T11:11:31.809Z,26080
2018-05-16T11:12:32.398Z,26912
2018-05-16T11:13:32.958Z,28032
2018-05-16T11:14:33.538Z,29248
2018-05-16T11:15:34.086Z,30624
2018-05-16T11:16:34.655Z,32448
2018-05-16T11:17:35.297Z,35392
2018-05-16T11:18:35.890Z,33952
2018-05-16T11:19:36.463Z,28672
2018-05-16T11:20:37.035Z,22944
2018-05-16T11:21:37.597Z,17952
2018-05-16T11:22:38.164Z,14728
2018-05-16T11:23:38.725Z,13300
2018-05-16T11:24:39.296Z,13004
2018-05-16T11:25:39.860Z,13468
2018-05-16T11:26:40.429Z,14352
2018-05-16T11:27:40.990Z,15916
2018-05-16T11:28:41.565Z,18300
2018-05-16T11:29:42.141Z,20640
2018-05-16T11:30:42.798Z,21632
2018-05-16T11:31:43.280Z,21664
2018-05-16T11:32:43.837Z,20832
2018-05-16T11:33:44.403Z,20128
2018-05-16T11:34:44.965Z,19040
2018-05-16T11:35:45.536Z,17320
2018-05-16T11:36:46.104Z,16896
2018-05-16T11:37:46.680Z,18816
2018-05-16T11:38:47.238Z,22592
2018-05-16T11:39:47.809Z,27264
2018-05-16T11:40:48.618Z,30400
2018-05-16T11:41:49.191Z,32832
2018-05-16T11:42:49.753Z,35424
2018-05-16T11:43:50.326Z,38560
2018-05-16T11:44:50.906Z,42464
2018-05-16T11:45:51.523Z,47264
2018-05-16T11:46:52.078Z,49056
2018-05-16T11:47:52.644Z,50752
2018-05-16T11:48:53.254Z,52288
2018-05-16T11:49:53.765Z,47424
2018-05-16T11:50:54.368Z,48096
2018-05-16T11:51:54.901Z,51872
2018-05-16T11:52:55.472Z,69472
2018-05-16T11:53:56.043Z,90560
2018-05-16T11:54:56.613Z,92128
2018-05-16T11:55:57.181Z,100992
2018-05-16T11:56:57.749Z,92128
2018-05-16T11:57:58.319Z,84896
2018-05-16T11:58:58.897Z,80480
2018-05-16T11:59:59.480Z,69120
2018-05-16T12:01:00.090Z,60704
2018-05-16T12:02:00.655Z,55520
2018-05-16T12:03:01.253Z,51104
2018-05-16T12:04:01.838Z,53888
2018-05-16T12:05:02.495Z,48864
2018-05-16T12:06:03.083Z,50624
2018-05-16T12:07:03.667Z,65184
2018-05-16T12:08:04.260Z,67584
2018-05-16T12:09:04.858Z,79936
2018-05-16T12:10:05.516Z,79040
2018-05-16T12:11:06.116Z,69728
2018-05-16T12:12:06.726Z,63488
2018-05-16T12:13:07.407Z,63360
2018-05-16T12:14:08.015Z,63360
2018-05-16T12:15:08.613Z,62720
2018-05-16T12:16:09.218Z,66592
2018-05-16T12:17:09.860Z,63488
2018-05-16T12:18:10.388Z,62720
2018-05-16T12:19:10.998Z,54240
2018-05-16T12:20:11.565Z,41408
2018-05-16T12:21:12.109Z,40480
2018-05-16T12:22:12.719Z,41728
2018-05-16T12:23:13.301Z,45632
2018-05-16T12:24:13.856Z,51264
2018-05-16T12:25:14.494Z,62112
2018-05-16T12:26:15.078Z,66912
2018-05-16T12:27:15.703Z,64768
2018-05-16T12:28:16.249Z,69760
2018-05-16T12:29:16.854Z,71680
2018-05-16T12:30:17.399Z,70016
2018-05-16T12:31:17.973Z,62656
2018-05-16T12:32:18.542Z,59328
2018-05-16T12:33:19.122Z,63488
2018-05-16T12:34:19.699Z,54176
2018-05-16T12:35:20.292Z,48640
2018-05-16T12:36:20.855Z,51040
2018-05-16T12:37:21.420Z,62720
2018-05-16T12:38:22.009Z,56832
2018-05-16T12:39:22.583Z,59616
2018-05-16T12:40:23.147Z,47424
2018-05-16T12:41:23.722Z,39808
2018-05-16T12:42:24.397Z,36544
2018-05-16T12:43:24.917Z,30240
2018-05-16T12:44:25.470Z,25184
2018-05-16T12:45:26.074Z,23392
2018-05-16T12:46:26.659Z,23008
2018-05-16T12:47:27.221Z,22656
2018-05-16T12:48:27.799Z,21920
2018-05-16T12:49:28.420Z,21728
2018-05-16T12:50:28.947Z,22432
2018-05-16T12:51:29.593Z,23712
2018-05-16T12:52:30.102Z,24224
2018-05-16T12:53:30.660Z,24064
2018-05-16T12:54:31.231Z,21952
2018-05-16T12:55:31.802Z,17928
2018-05-16T12:56:32.381Z,14224
2018-05-16T12:57:32.963Z,11932
2018-05-16T12:58:33.547Z,10804
2018-05-16T12:59:34.170Z,10520
2018-05-16T13:00:34.731Z,10592
2018-05-16T13:01:35.424Z,10524
2018-05-16T13:02:36.007Z,10300
2018-05-16T13:03:36.571Z,10392
2018-05-16T13:04:37.144Z,10944
2018-05-16T13:05:37.719Z,11876
2018-05-16T13:06:38.336Z,13296
2018-05-16T13:07:38.976Z,15588
2018-05-16T13:08:39.625Z,19072
2018-05-16T13:09:40.227Z,22272
2018-05-16T13:10:40.832Z,23776
2018-05-16T13:11:41.437Z,25312
2018-05-16T13:12:41.997Z,28224
2018-05-16T13:13:42.603Z,32256
2018-05-16T13:14:43.242Z,38272
2018-05-16T13:15:43.852Z,42688
2018-05-16T13:16:44.464Z,52448
2018-05-16T13:17:45.171Z,45568
2018-05-16T13:18:45.705Z,45344
2018-05-16T13:19:46.294Z,40704
2018-05-16T13:20:46.902Z,44608
2018-05-16T13:21:47.532Z,48768
2018-05-16T13:22:48.118Z,53376
2018-05-16T13:23:48.711Z,52672
2018-05-16T13:24:49.274Z,46336
2018-05-16T13:25:49.843Z,43968
2018-05-16T13:26:50.472Z,43712
2018-05-16T13:27:50.971Z,44000
2018-05-16T13:28:51.569Z,44928
2018-05-16T13:29:52.140Z,44704
2018-05-16T13:30:52.715Z,48928
2018-05-16T13:31:53.290Z,49568